createdAt,value
2022-10-11T00:00:09.802Z,10.75
2022-10-11T00:01:09.885Z,10.74
2022-10-11T00:02:09.767Z,10.74
2022-10-11T00:03:09.740Z,10.72
2022-10-11T00:04:09.732Z,10.71
2022-10-11T00:05:09.731Z,10.71
2022-10-11T00:06:09.721Z,10.69
2022-10-11T00:07:09.731Z,10.68
2022-10-11T00:08:09.691Z,10.68
2022-10-11T00:09:09.671Z,10.67
2022-10-11T00:10:09.674Z,10.64
2022-10-11T00:11:09.631Z,10.67
2022-10-11T00:12:09.641Z,10.63
2022-10-11T00:13:09.609Z,10.63
2022-10-11T00:14:09.598Z,10.60
2022-10-11T00:15:09.602Z,10.59
2022-10-11T00:16:09.573Z,10.57
2022-10-11T00:17:09.550Z,10.54
2022-10-11T00:18:09.562Z,10.53
2022-10-11T00:19:09.529Z,10.51
2022-10-11T00:20:09.530Z,10.49
2022-10-11T00:21:09.507Z,10.49
2022-10-11T00:22:09.489Z,10.46
2022-10-11T00:23:09.471Z,10.44
2022-10-11T00:24:09.470Z,10.44
2022-10-11T00:25:09.469Z,10.42
2022-10-11T00:26:09.876Z,10.40
2022-10-11T00:27:09.419Z,10.40
2022-10-11T00:28:09.466Z,10.40
2022-10-11T00:29:09.397Z,10.37
2022-10-11T00:30:09.398Z,10.35
2022-10-11T00:31:09.415Z,10.37
2022-10-11T00:32:09.356Z,10.34
2022-10-11T00:33:09.338Z,10.33
2022-10-11T00:34:09.328Z,10.33
2022-10-11T00:35:09.328Z,10.31
2022-10-11T00:36:09.657Z,10.30
2022-10-11T00:37:09.278Z,10.26
2022-10-11T00:38:09.278Z,10.25
2022-10-11T00:39:09.271Z,10.23
2022-10-11T00:40:09.280Z,10.22
2022-10-11T00:41:09.257Z,10.20
2022-10-11T00:42:09.228Z,10.20
2022-10-11T00:43:09.207Z,10.20
2022-10-11T00:44:09.206Z,10.19
2022-10-11T00:45:09.195Z,10.17
2022-10-11T00:46:09.460Z,10.16
2022-10-11T00:47:09.155Z,10.17
2022-10-11T00:48:09.144Z,10.15
2022-10-11T00:49:09.126Z,10.15
2022-10-11T00:50:09.126Z,10.13
2022-10-11T00:51:09.274Z,10.12
2022-10-11T00:52:09.086Z,10.10
2022-10-11T00:53:09.075Z,10.10
2022-10-11T00:54:09.066Z,10.09
2022-10-11T00:55:09.064Z,10.09
2022-10-11T00:56:09.618Z,10.07
2022-10-11T00:57:09.026Z,10.04
2022-10-11T00:58:09.017Z,10.02
2022-10-11T00:59:08.997Z,10.02
2022-10-11T01:00:09.025Z,9.99
2022-10-11T01:01:09.038Z,9.98
2022-10-11T01:02:08.966Z,9.98
2022-10-11T01:03:08.945Z,9.97
2022-10-11T01:04:08.948Z,9.95
2022-10-11T01:05:28.098Z,9.92
2022-10-11T01:06:09.904Z,9.92
2022-10-11T01:07:08.912Z,9.89
2022-10-11T01:08:08.892Z,9.89
2022-10-11T01:09:08.864Z,9.87
2022-10-11T01:10:08.871Z,9.86
2022-10-11T01:11:08.842Z,9.89
2022-10-11T01:12:08.833Z,9.83
2022-10-11T01:13:08.812Z,9.83
2022-10-11T01:14:08.810Z,9.82
2022-10-11T01:15:08.803Z,9.82
2022-10-11T01:16:08.913Z,9.82
2022-10-11T01:17:08.771Z,9.79
2022-10-11T01:18:08.757Z,9.79
2022-10-11T01:19:08.766Z,9.76
2022-10-11T01:20:08.782Z,9.76
2022-10-11T01:21:08.729Z,9.73
2022-10-11T01:22:08.722Z,9.73
2022-10-11T01:23:08.691Z,9.69
2022-10-11T01:24:09.005Z,9.69
2022-10-11T01:25:08.716Z,9.68
2022-10-11T01:26:08.651Z,9.68
2022-10-11T01:27:08.643Z,9.65
2022-10-11T01:28:08.774Z,9.65
2022-10-11T01:29:08.676Z,9.64
2022-10-11T01:30:08.610Z,9.61
2022-10-11T01:31:08.587Z,9.61
2022-10-11T01:32:08.561Z,9.61
2022-10-11T01:33:08.570Z,9.61
2022-10-11T01:34:08.539Z,9.59
2022-10-11T01:35:08.550Z,9.58
2022-10-11T01:36:08.833Z,9.58
2022-10-11T01:37:08.548Z,9.58
2022-10-11T01:38:08.488Z,9.56
2022-10-11T01:39:08.479Z,9.55
2022-10-11T01:40:08.480Z,9.55
2022-10-11T01:41:08.453Z,9.51
2022-10-11T01:42:08.447Z,9.51
2022-10-11T01:43:08.429Z,9.50
2022-10-11T01:44:08.409Z,9.48
2022-10-11T01:45:08.430Z,9.47
2022-10-11T01:46:08.640Z,9.46
2022-10-11T01:47:08.386Z,9.46
2022-10-11T01:48:08.443Z,9.44
2022-10-11T01:49:08.358Z,9.43
2022-10-11T01:50:08.347Z,9.41
2022-10-11T01:51:08.347Z,9.40
2022-10-11T01:52:08.309Z,9.40
2022-10-11T01:53:08.307Z,9.41
2022-10-11T01:54:08.276Z,9.39
2022-10-11T01:55:09.947Z,9.39
2022-10-11T01:56:08.409Z,9.39
2022-10-11T01:57:08.276Z,9.39
2022-10-11T01:58:08.236Z,9.37
2022-10-11T01:59:08.217Z,9.32
2022-10-11T02:00:08.226Z,9.31
2022-10-11T02:01:08.289Z,9.31
2022-10-11T02:02:08.177Z,9.29
2022-10-11T02:03:08.169Z,9.28
2022-10-11T02:04:08.160Z,9.28
2022-10-11T02:05:08.155Z,9.25
2022-10-11T02:06:08.672Z,9.23
2022-10-11T02:07:08.125Z,9.25
2022-10-11T02:08:08.098Z,9.22
2022-10-11T02:09:08.462Z,9.21
2022-10-11T02:10:08.088Z,9.19
2022-10-11T02:11:08.056Z,9.18
2022-10-11T02:12:08.053Z,9.18
2022-10-11T02:13:08.035Z,9.16
2022-10-11T02:14:08.027Z,9.16
2022-10-11T02:15:08.025Z,9.14
2022-10-11T02:16:08.663Z,9.13
2022-10-11T02:17:07.983Z,9.13
2022-10-11T02:18:07.963Z,9.13
2022-10-11T02:19:07.954Z,9.11
2022-10-11T02:20:07.971Z,9.10
2022-10-11T02:21:07.936Z,9.10
2022-10-11T02:22:07.914Z,9.08
2022-10-11T02:23:07.903Z,9.06
2022-10-11T02:24:07.893Z,9.03
2022-10-11T02:25:07.873Z,9.03
2022-10-11T02:26:08.246Z,9.00
2022-10-11T02:27:07.852Z,9.00
2022-10-11T02:28:07.880Z,9.00
2022-10-11T02:29:07.861Z,8.99
2022-10-11T02:30:07.813Z,8.97
2022-10-11T02:31:07.812Z,8.94
2022-10-11T02:32:07.781Z,8.94
2022-10-11T02:33:09.023Z,8.94
2022-10-11T02:34:07.761Z,8.91
2022-10-11T02:35:07.755Z,8.89
2022-10-11T02:36:08.204Z,8.91
2022-10-11T02:37:07.730Z,8.88
2022-10-11T02:38:07.752Z,8.88
2022-10-11T02:39:07.707Z,8.87
2022-10-11T02:40:07.691Z,8.85
2022-10-11T02:41:07.711Z,8.84
2022-10-11T02:42:07.660Z,8.82
2022-10-11T02:43:07.648Z,8.81
2022-10-11T02:44:07.632Z,8.79
2022-10-11T02:45:07.630Z,8.79
2022-10-11T02:46:08.244Z,8.81
2022-10-11T02:47:07.619Z,8.76
2022-10-11T02:48:07.570Z,8.76
2022-10-11T02:49:07.559Z,8.74
2022-10-11T02:50:07.549Z,8.73
2022-10-11T02:51:07.558Z,8.71
2022-10-11T02:52:07.518Z,8.71
2022-10-11T02:53:07.538Z,8.70
2022-10-11T02:54:07.497Z,8.69
2022-10-11T02:55:07.487Z,8.67
2022-10-11T02:56:07.901Z,8.67
2022-10-11T02:57:07.467Z,8.66
2022-10-11T02:58:07.438Z,8.64
2022-10-11T02:59:07.427Z,8.63
2022-10-11T03:00:07.426Z,8.63
2022-10-11T03:01:07.642Z,8.63
2022-10-11T03:02:07.429Z,8.60
2022-10-11T03:03:07.419Z,8.60
2022-10-11T03:04:07.356Z,8.58
2022-10-11T03:05:07.350Z,8.56
2022-10-11T03:06:07.780Z,8.55
2022-10-11T03:07:07.329Z,8.53
2022-10-11T03:08:07.306Z,8.53
2022-10-11T03:09:07.297Z,8.52
2022-10-11T03:10:07.289Z,8.49
2022-10-11T03:11:07.307Z,8.52
2022-10-11T03:12:07.273Z,8.49
2022-10-11T03:13:07.245Z,8.48
2022-10-11T03:14:07.234Z,8.48
2022-10-11T03:15:07.233Z,8.45
2022-10-11T03:16:07.356Z,8.45
2022-10-11T03:17:30.975Z,8.44
2022-10-11T03:18:08.174Z,8.42
2022-10-11T03:19:07.174Z,8.41
2022-10-11T03:20:07.153Z,8.37
2022-10-11T03:21:07.164Z,8.36
2022-10-11T03:22:07.126Z,8.34
2022-10-11T03:23:07.113Z,8.31
2022-10-11T03:24:07.153Z,8.31
2022-10-11T03:25:07.092Z,8.30
2022-10-11T03:26:07.564Z,8.27
2022-10-11T03:27:07.065Z,8.27
2022-10-11T03:28:07.109Z,8.24
2022-10-11T03:29:07.033Z,8.23
2022-10-11T03:30:07.026Z,8.23
2022-10-11T03:31:07.268Z,8.24
2022-10-11T03:32:07.001Z,8.20
2022-10-11T03:33:07.032Z,8.20
2022-10-11T03:34:06.963Z,8.20
2022-10-11T03:35:06.963Z,8.18
2022-10-11T03:36:07.500Z,8.18
2022-10-11T03:37:06.938Z,8.18
2022-10-11T03:38:09.124Z,8.16
2022-10-11T03:39:07.900Z,8.16
2022-10-11T03:40:06.892Z,8.15
2022-10-11T03:41:06.899Z,8.15
2022-10-11T03:42:06.864Z,8.13
2022-10-11T03:43:06.851Z,8.12
2022-10-11T03:44:06.830Z,8.12
2022-10-11T03:45:06.833Z,8.09
2022-10-11T03:46:07.377Z,8.09
2022-10-11T03:47:06.828Z,8.10
2022-10-11T03:48:06.785Z,8.09
2022-10-11T03:49:06.789Z,8.09
2022-10-11T03:50:06.761Z,8.08
2022-10-11T03:51:06.780Z,8.06
2022-10-11T03:52:06.764Z,8.05
2022-10-11T03:53:06.737Z,8.05
2022-10-11T03:54:06.772Z,8.01
2022-10-11T03:55:06.704Z,8.00
2022-10-11T03:56:08.564Z,8.00
2022-10-11T03:57:06.668Z,7.95
2022-10-11T03:58:06.647Z,7.94
2022-10-11T03:59:06.658Z,7.93
2022-10-11T04:00:06.621Z,7.93
2022-10-11T04:01:06.639Z,7.91
2022-10-11T04:02:06.638Z,7.91
2022-10-11T04:03:06.589Z,7.91
2022-10-11T04:04:06.566Z,7.91
2022-10-11T04:05:06.558Z,7.90
2022-10-11T04:06:07.118Z,7.88
2022-10-11T04:07:06.548Z,7.88
2022-10-11T04:08:11.806Z,7.90
2022-10-11T04:09:07.513Z,7.88
2022-10-11T04:10:06.505Z,7.87
2022-10-11T04:11:06.496Z,7.87
2022-10-11T04:12:06.476Z,7.85
2022-10-11T04:13:06.466Z,7.83
2022-10-11T04:14:06.445Z,7.83
2022-10-11T04:15:06.426Z,7.80
2022-10-11T04:16:06.695Z,7.80
2022-10-11T04:17:06.404Z,7.79
2022-10-11T04:18:06.404Z,7.77
2022-10-11T04:19:06.375Z,7.76
2022-10-11T04:20:06.353Z,7.75
2022-10-11T04:21:06.391Z,7.70
2022-10-11T04:22:06.355Z,7.70
2022-10-11T04:23:06.323Z,7.70
2022-10-11T04:24:06.303Z,7.69
2022-10-11T04:25:06.302Z,7.67
2022-10-11T04:26:07.072Z,7.66
2022-10-11T04:27:06.274Z,7.66
2022-10-11T04:28:06.262Z,7.61
2022-10-11T04:29:06.252Z,7.63
2022-10-11T04:30:06.242Z,7.61
2022-10-11T04:31:06.242Z,7.58
2022-10-11T04:32:06.213Z,7.58
2022-10-11T04:33:06.193Z,7.57
2022-10-11T04:34:06.172Z,7.56
2022-10-11T04:35:06.172Z,7.54
2022-10-11T04:36:06.625Z,7.54
2022-10-11T04:37:06.170Z,7.51
2022-10-11T04:38:06.131Z,7.51
2022-10-11T04:39:06.110Z,7.48
2022-10-11T04:40:06.100Z,7.47
2022-10-11T04:41:06.109Z,7.47
2022-10-11T04:42:13.585Z,7.45
2022-10-11T04:43:06.054Z,7.43
2022-10-11T04:44:06.035Z,7.40
2022-10-11T04:45:06.033Z,7.40
2022-10-11T04:46:06.476Z,7.39
2022-10-11T04:47:06.007Z,7.40
2022-10-11T04:48:05.983Z,7.38
2022-10-11T04:49:05.980Z,7.36
2022-10-11T04:50:05.967Z,7.36
2022-10-11T04:51:05.965Z,7.35
2022-10-11T04:52:05.932Z,7.33
2022-10-11T04:53:05.922Z,7.32
2022-10-11T04:54:05.903Z,7.31
2022-10-11T04:55:05.892Z,7.32
2022-10-11T04:56:06.110Z,7.31
2022-10-11T04:57:05.870Z,7.28
2022-10-11T04:58:05.861Z,7.31
2022-10-11T04:59:05.841Z,7.29
2022-10-11T05:00:05.833Z,7.28
2022-10-11T05:01:05.841Z,7.29
2022-10-11T05:02:05.878Z,7.28
2022-10-11T05:03:05.794Z,7.29
2022-10-11T05:04:05.771Z,7.28
2022-10-11T05:05:06.012Z,7.28
2022-10-11T05:06:06.290Z,7.28
2022-10-11T05:07:05.741Z,7.28
2022-10-11T05:08:05.720Z,7.24
2022-10-11T05:09:05.709Z,7.24
2022-10-11T05:10:05.706Z,7.24
2022-10-11T05:11:05.708Z,7.25
2022-10-11T05:12:05.675Z,7.24
2022-10-11T05:13:05.682Z,7.24
2022-10-11T05:14:05.641Z,7.23
2022-10-11T05:15:05.641Z,7.23
2022-10-11T05:16:09.777Z,7.23
2022-10-11T05:17:06.618Z,7.23
2022-10-11T05:18:05.588Z,7.21
2022-10-11T05:19:05.585Z,7.21
2022-10-11T05:20:05.568Z,7.21
2022-10-11T05:21:05.570Z,7.21
2022-10-11T05:22:05.536Z,7.20
2022-10-11T05:23:05.545Z,7.21
2022-10-11T05:24:05.520Z,7.21
2022-10-11T05:25:05.517Z,7.20
2022-10-11T05:26:05.854Z,7.21
2022-10-11T05:27:05.479Z,7.20
2022-10-11T05:28:05.466Z,7.20
2022-10-11T05:29:05.446Z,7.20
2022-10-11T05:30:05.439Z,7.20
2022-10-11T05:31:05.433Z,7.20
2022-10-11T05:32:05.409Z,7.18
2022-10-11T05:33:05.394Z,7.18
2022-10-11T05:34:05.383Z,7.17
2022-10-11T05:35:05.366Z,7.17
2022-10-11T05:36:05.688Z,7.17
2022-10-11T05:37:05.347Z,7.18
2022-10-11T05:38:05.333Z,7.18
2022-10-11T05:39:05.394Z,7.18
2022-10-11T05:40:05.302Z,7.17
2022-10-11T05:41:05.304Z,7.17
2022-10-11T05:42:09.625Z,7.18
2022-10-11T05:43:05.276Z,7.18
2022-10-11T05:44:05.251Z,7.18
2022-10-11T05:45:05.244Z,7.18
2022-10-11T05:46:05.572Z,7.20
2022-10-11T05:47:05.215Z,7.21
2022-10-11T05:48:05.195Z,7.20
2022-10-11T05:49:05.195Z,7.21
2022-10-11T05:50:09.286Z,7.23
2022-10-11T05:51:05.219Z,7.23
2022-10-11T05:52:05.172Z,7.24
2022-10-11T05:53:05.125Z,7.25
2022-10-11T05:54:05.130Z,7.28
2022-10-11T05:55:05.112Z,7.25
2022-10-11T05:56:05.500Z,7.28
2022-10-11T05:57:05.080Z,7.29
2022-10-11T05:58:05.194Z,7.28
2022-10-11T05:59:05.055Z,7.29
2022-10-11T06:00:05.053Z,7.32
2022-10-11T06:01:05.069Z,7.32
2022-10-11T06:02:05.224Z,7.33
2022-10-11T06:03:05.065Z,7.33
2022-10-11T06:04:04.990Z,7.35
2022-10-11T06:05:04.981Z,7.35
2022-10-11T06:06:05.371Z,7.35
2022-10-11T06:07:04.950Z,7.39
2022-10-11T06:08:05.013Z,7.38
2022-10-11T06:09:05.060Z,7.38
2022-10-11T06:10:04.907Z,7.40
2022-10-11T06:11:07.298Z,7.42
2022-10-11T06:12:05.880Z,7.43
2022-10-11T06:13:04.870Z,7.45
2022-10-11T06:14:04.862Z,7.47
2022-10-11T06:15:04.836Z,7.47
2022-10-11T06:16:05.178Z,7.48
2022-10-11T06:17:04.927Z,7.50
2022-10-11T06:18:04.807Z,7.53
2022-10-11T06:19:04.785Z,7.56
2022-10-11T06:20:04.775Z,7.63
2022-10-11T06:21:04.787Z,7.69
2022-10-11T06:22:04.789Z,7.75
2022-10-11T06:23:04.728Z,7.80
2022-10-11T06:24:04.727Z,7.85
2022-10-11T06:25:04.709Z,7.88
2022-10-11T06:26:05.014Z,7.94
2022-10-11T06:27:04.687Z,8.00
2022-10-11T06:28:04.675Z,8.03
2022-10-11T06:29:04.657Z,8.08
2022-10-11T06:30:04.646Z,8.13
2022-10-11T06:31:04.650Z,8.16
2022-10-11T06:32:04.625Z,8.20
2022-10-11T06:33:05.160Z,8.26
2022-10-11T06:34:04.595Z,8.31
2022-10-11T06:35:04.586Z,8.37
2022-10-11T06:36:04.904Z,8.42
2022-10-11T06:37:04.555Z,8.46
2022-10-11T06:38:04.544Z,8.53
2022-10-11T06:39:04.524Z,8.60
2022-10-11T06:40:04.523Z,8.63
2022-10-11T06:41:04.516Z,8.69
2022-10-11T06:42:04.493Z,8.74
2022-10-11T06:43:04.479Z,8.82
2022-10-11T06:44:04.467Z,8.85
2022-10-11T06:45:04.445Z,8.92
2022-10-11T06:46:04.715Z,8.97
2022-10-11T06:47:04.425Z,9.02
2022-10-11T06:48:04.436Z,9.08
2022-10-11T06:49:04.393Z,9.14
2022-10-11T06:50:04.383Z,9.19
2022-10-11T06:51:04.403Z,9.23
2022-10-11T06:52:04.371Z,9.31
2022-10-11T06:53:04.353Z,9.37
2022-10-11T06:54:04.336Z,9.41
2022-10-11T06:55:04.316Z,9.47
2022-10-11T06:56:04.718Z,9.51
2022-10-11T06:57:04.302Z,9.56
2022-10-11T06:58:04.281Z,9.64
2022-10-11T06:59:04.254Z,9.72
2022-10-11T07:00:05.563Z,9.76
2022-10-11T07:01:04.279Z,9.83
2022-10-11T07:02:04.249Z,9.89
2022-10-11T07:03:04.211Z,9.95
2022-10-11T07:04:04.201Z,10.01
2022-10-11T07:05:04.183Z,10.07
2022-10-11T07:06:04.504Z,10.12
2022-10-11T07:07:04.170Z,10.20
2022-10-11T07:08:04.142Z,10.26
2022-10-11T07:09:04.124Z,10.33
2022-10-11T07:10:04.127Z,10.40
2022-10-11T07:11:04.092Z,10.46
2022-10-11T07:12:04.113Z,10.54
2022-10-11T07:13:04.072Z,10.61
2022-10-11T07:14:04.062Z,10.68
2022-10-11T07:15:04.051Z,10.75
2022-10-11T07:16:04.273Z,10.82
2022-10-11T07:17:04.037Z,10.87
2022-10-11T07:18:04.009Z,10.93
2022-10-11T07:19:04.004Z,10.97
2022-10-11T07:20:03.982Z,11.04
2022-10-11T07:21:03.985Z,11.08
2022-10-11T07:22:03.980Z,11.14
2022-10-11T07:23:03.931Z,11.22
2022-10-11T07:24:03.945Z,11.27
2022-10-11T07:25:03.923Z,11.33
2022-10-11T07:26:04.334Z,11.37
2022-10-11T07:27:03.902Z,11.44
2022-10-11T07:28:03.882Z,11.50
2022-10-11T07:29:03.958Z,11.54
2022-10-11T07:30:03.850Z,11.62
2022-10-11T07:31:03.830Z,11.69
2022-10-11T07:32:03.852Z,11.75
2022-10-11T07:33:03.807Z,11.81
2022-10-11T07:34:03.814Z,11.86
2022-10-11T07:35:03.785Z,11.84
2022-10-11T07:36:04.282Z,11.99
2022-10-11T07:37:03.762Z,12.04
2022-10-11T07:38:03.739Z,12.13
2022-10-11T07:39:03.756Z,12.21
2022-10-11T07:40:03.718Z,12.28
2022-10-11T07:41:03.696Z,12.36
2022-10-11T07:42:03.709Z,12.43
2022-10-11T07:43:03.675Z,12.49
2022-10-11T07:44:03.663Z,12.55
2022-10-11T07:45:03.647Z,12.61
2022-10-11T07:46:04.064Z,12.65
2022-10-11T07:47:05.752Z,12.72
2022-10-11T07:48:04.606Z,12.80
2022-10-11T07:49:03.590Z,12.86
2022-10-11T07:50:03.588Z,12.94
2022-10-11T07:51:03.568Z,13.00
2022-10-11T07:52:03.576Z,13.09
2022-10-11T07:53:03.566Z,13.16
2022-10-11T07:54:07.280Z,13.22
2022-10-11T07:55:03.508Z,13.30
2022-10-11T07:56:03.880Z,13.37
2022-10-11T07:57:03.497Z,13.42
2022-10-11T07:58:03.494Z,13.53
2022-10-11T07:59:03.492Z,13.57
2022-10-11T08:00:03.488Z,13.62
2022-10-11T08:01:03.470Z,13.63
2022-10-11T08:02:03.550Z,13.70
2022-10-11T08:03:03.401Z,13.77
2022-10-11T08:04:03.398Z,13.81
2022-10-11T08:05:03.382Z,13.90
2022-10-11T08:06:03.874Z,13.99
2022-10-11T08:07:03.366Z,14.04
2022-10-11T08:08:03.349Z,14.12
2022-10-11T08:09:03.346Z,14.20
2022-10-11T08:10:03.325Z,14.28
2022-10-11T08:11:03.305Z,14.35
2022-10-11T08:12:03.305Z,14.43
2022-10-11T08:13:04.568Z,14.51
2022-10-11T08:14:03.265Z,14.59
2022-10-11T08:15:03.245Z,14.65
2022-10-11T08:16:03.540Z,14.70
2022-10-11T08:17:03.256Z,14.77
2022-10-11T08:18:03.229Z,14.84
2022-10-11T08:19:03.194Z,14.91
2022-10-11T08:20:03.184Z,14.99
2022-10-11T08:21:03.166Z,15.04
2022-10-11T08:22:03.168Z,15.10
2022-10-11T08:23:03.137Z,15.15
2022-10-11T08:24:03.128Z,15.21
2022-10-11T08:25:03.114Z,15.28
2022-10-11T08:26:03.444Z,15.33
2022-10-11T08:27:03.116Z,15.37
2022-10-11T08:28:03.142Z,15.46
2022-10-11T08:29:03.104Z,15.47
2022-10-11T08:30:03.045Z,15.52
2022-10-11T08:31:03.034Z,15.57
2022-10-11T08:32:03.042Z,15.62
2022-10-11T08:33:07.614Z,15.68
2022-10-11T08:34:03.996Z,15.77
2022-10-11T08:35:02.984Z,15.84
2022-10-11T08:36:03.381Z,15.94
2022-10-11T08:37:02.995Z,16.02
2022-10-11T08:38:02.944Z,16.09
2022-10-11T08:39:02.928Z,16.15
2022-10-11T08:40:02.924Z,16.20
2022-10-11T08:41:02.923Z,16.24
2022-10-11T08:42:03.166Z,16.31
2022-10-11T08:43:02.882Z,16.32
2022-10-11T08:44:02.867Z,16.36
2022-10-11T08:45:11.804Z,16.38
2022-10-11T08:46:04.316Z,16.43
2022-10-11T08:47:02.834Z,16.50
2022-10-11T08:48:02.806Z,16.56
2022-10-11T08:49:02.793Z,16.60
2022-10-11T08:50:02.776Z,16.65
2022-10-11T08:51:02.768Z,16.68
2022-10-11T08:52:02.775Z,16.69
2022-10-11T08:53:02.741Z,16.71
2022-10-11T08:54:07.409Z,16.74
2022-10-11T08:55:03.723Z,16.78
2022-10-11T08:56:03.034Z,16.86
2022-10-11T08:57:02.705Z,16.94
2022-10-11T08:58:02.684Z,17.04
2022-10-11T08:59:02.655Z,17.08
2022-10-11T09:00:02.644Z,17.09
2022-10-11T09:01:02.719Z,17.12
2022-10-11T09:02:02.671Z,17.20
2022-10-11T09:03:08.480Z,17.27
2022-10-11T09:04:03.596Z,17.34
2022-10-11T09:05:02.587Z,17.39
2022-10-11T09:06:02.902Z,17.42
2022-10-11T09:07:04.913Z,17.45
2022-10-11T09:08:02.542Z,17.45
2022-10-11T09:09:02.523Z,17.49
2022-10-11T09:10:02.518Z,17.52
2022-10-11T09:11:02.497Z,17.59
2022-10-11T09:12:02.493Z,17.65
2022-10-11T09:13:02.463Z,17.70
2022-10-11T09:14:02.453Z,17.72
2022-10-11T09:15:02.444Z,17.78
2022-10-11T09:16:02.834Z,17.80
2022-10-11T09:17:02.424Z,17.74
2022-10-11T09:18:02.421Z,17.71
2022-10-11T09:19:02.391Z,17.71
2022-10-11T09:20:02.380Z,17.72
2022-10-11T09:21:02.363Z,17.76
2022-10-11T09:22:02.365Z,17.83
2022-10-11T09:23:02.334Z,17.86
2022-10-11T09:24:02.313Z,17.90
2022-10-11T09:25:02.303Z,17.95
2022-10-11T09:26:02.442Z,18.01
2022-10-11T09:27:02.308Z,18.08
2022-10-11T09:28:03.798Z,18.16
2022-10-11T09:29:02.291Z,18.23
2022-10-11T09:30:02.252Z,18.33
2022-10-11T09:31:02.224Z,18.37
2022-10-11T09:32:02.241Z,18.45
2022-10-11T09:33:02.201Z,18.50
2022-10-11T09:34:02.192Z,18.53
2022-10-11T09:35:02.174Z,18.53
2022-10-11T09:36:02.401Z,18.55
2022-10-11T09:37:02.161Z,18.56
2022-10-11T09:38:02.156Z,18.63
2022-10-11T09:39:06.487Z,18.71
2022-10-11T09:40:02.116Z,18.80
2022-10-11T09:41:02.238Z,18.84
2022-10-11T09:42:02.112Z,18.86
2022-10-11T09:43:02.124Z,18.90
2022-10-11T09:44:02.053Z,18.90
2022-10-11T09:45:02.048Z,18.88
2022-10-11T09:46:02.348Z,18.90
2022-10-11T09:47:02.019Z,18.90
2022-10-11T09:48:02.005Z,18.88
2022-10-11T09:49:01.993Z,18.92
2022-10-11T09:50:01.982Z,18.99
2022-10-11T09:51:01.987Z,19.02
2022-10-11T09:52:01.949Z,19.07
2022-10-11T09:53:01.979Z,19.07
2022-10-11T09:54:01.922Z,19.04
2022-10-11T09:55:01.911Z,19.08
2022-10-11T09:56:02.046Z,19.14
2022-10-11T09:57:01.899Z,19.19
2022-10-11T09:58:01.870Z,19.24
2022-10-11T09:59:01.862Z,19.30
2022-10-11T10:00:01.843Z,19.33
2022-10-11T10:01:06.728Z,19.33
2022-10-11T10:02:02.884Z,19.39
2022-10-11T10:03:01.802Z,19.40
2022-10-11T10:04:01.790Z,19.39
2022-10-11T10:05:01.786Z,19.34
2022-10-11T10:06:01.934Z,19.31
2022-10-11T10:07:01.771Z,19.36
2022-10-11T10:08:04.893Z,19.45
2022-10-11T10:09:01.725Z,19.47
2022-10-11T10:10:01.724Z,19.44
2022-10-11T10:11:01.701Z,19.44
2022-10-11T10:12:01.692Z,19.40
2022-10-11T10:13:01.681Z,19.34
2022-10-11T10:14:01.661Z,19.33
2022-10-11T10:15:01.647Z,19.33
2022-10-11T10:16:01.745Z,19.34
2022-10-11T10:17:01.636Z,19.36
2022-10-11T10:18:01.602Z,19.39
2022-10-11T10:19:01.613Z,19.39
2022-10-11T10:20:01.581Z,19.34
2022-10-11T10:21:01.592Z,19.31
2022-10-11T10:22:01.562Z,19.27
2022-10-11T10:23:01.557Z,19.24
2022-10-11T10:24:01.525Z,19.19
2022-10-11T10:25:01.511Z,19.14
2022-10-11T10:26:01.492Z,19.07
2022-10-11T10:27:01.501Z,18.98
2022-10-11T10:28:01.472Z,19.00
2022-10-11T10:29:01.493Z,19.00
2022-10-11T10:30:01.444Z,18.99
2022-10-11T10:31:01.446Z,18.98
2022-10-11T10:32:13.819Z,18.96
2022-10-11T10:33:02.409Z,18.98
2022-10-11T10:34:01.392Z,18.96
2022-10-11T10:35:01.380Z,18.96
2022-10-11T10:36:01.427Z,18.95
2022-10-11T10:37:01.369Z,18.89
2022-10-11T10:38:01.350Z,18.84
2022-10-11T10:39:01.337Z,18.84
2022-10-11T10:40:01.315Z,18.88
2022-10-11T10:41:01.303Z,18.88
2022-10-11T10:42:01.315Z,18.90
2022-10-11T10:44:11.808Z,18.99
2022-10-11T10:45:13.104Z,18.98
2022-10-11T10:46:11.207Z,18.92
2022-10-11T10:47:11.217Z,18.89
2022-10-11T10:48:11.193Z,18.86
2022-10-11T10:49:41.266Z,18.86
2022-10-11T10:50:12.162Z,18.86
2022-10-11T10:51:11.134Z,18.89
2022-10-11T10:52:11.136Z,18.92
2022-10-11T10:53:11.155Z,18.95
2022-10-11T10:54:11.104Z,18.98
2022-10-11T10:55:11.104Z,18.98
2022-10-11T10:56:11.075Z,18.98
2022-10-11T10:57:11.075Z,19.00
2022-10-11T10:58:14.001Z,18.93
2022-10-11T10:59:12.023Z,18.89
2022-10-11T11:00:11.024Z,18.86
2022-10-11T11:01:11.009Z,18.78
2022-10-11T11:02:35.326Z,18.66
2022-10-11T11:03:11.975Z,18.56
2022-10-11T11:04:10.979Z,18.47
2022-10-11T11:05:10.975Z,18.47
2022-10-11T11:06:10.953Z,18.50
2022-10-11T11:07:10.938Z,18.52
2022-10-11T11:08:10.905Z,18.49
2022-10-11T11:09:10.905Z,18.49
2022-10-11T11:10:10.895Z,18.55
2022-10-11T11:11:10.875Z,18.59
2022-10-11T11:12:10.875Z,18.62
2022-10-11T11:13:10.846Z,18.63
2022-10-11T11:14:10.834Z,18.70
2022-10-11T11:15:10.823Z,18.75
2022-10-11T11:16:10.814Z,18.75
2022-10-11T11:17:10.806Z,18.80
2022-10-11T11:18:10.784Z,18.83
2022-10-11T11:19:10.765Z,18.88
2022-10-11T11:20:10.761Z,18.92
2022-10-11T11:21:10.812Z,18.96
2022-10-11T11:22:10.752Z,18.99
2022-10-11T11:23:10.714Z,19.00
2022-10-11T11:24:10.715Z,19.04
2022-10-11T11:25:10.679Z,18.99
2022-10-11T11:26:10.695Z,18.99
2022-10-11T11:27:10.678Z,18.98
2022-10-11T11:28:10.709Z,18.93
2022-10-11T11:29:10.628Z,18.88
2022-10-11T11:30:10.625Z,18.81
2022-10-11T11:31:10.599Z,18.80
2022-10-11T11:32:10.605Z,18.73
2022-10-11T11:33:10.583Z,18.68
2022-10-11T11:34:10.575Z,18.62
2022-10-11T11:35:10.555Z,18.58
2022-10-11T11:36:10.545Z,18.56
2022-10-11T11:37:10.544Z,18.59
2022-10-11T11:38:10.524Z,18.63
2022-10-11T11:39:10.495Z,18.70
2022-10-11T11:40:10.526Z,18.73
2022-10-11T11:41:10.577Z,18.75
2022-10-11T11:42:10.522Z,18.73
2022-10-11T11:43:10.477Z,18.75
2022-10-11T11:44:10.435Z,18.77
2022-10-11T11:45:10.554Z,18.83
2022-10-11T11:46:10.435Z,18.88
2022-10-11T11:47:10.417Z,18.92
2022-10-11T11:48:10.441Z,18.98
2022-10-11T11:49:12.960Z,19.02
2022-10-11T11:50:10.345Z,19.11
2022-10-11T11:51:10.351Z,19.12
2022-10-11T11:52:10.363Z,19.14
2022-10-11T11:53:10.335Z,19.15
2022-10-11T11:54:10.297Z,19.19
2022-10-11T11:55:10.286Z,19.21
2022-10-11T11:56:10.279Z,19.21
2022-10-11T11:57:10.286Z,19.22
2022-10-11T11:58:10.256Z,19.22
2022-10-11T11:59:10.247Z,19.22
2022-10-11T12:00:10.229Z,19.24
2022-10-11T12:01:10.287Z,19.22
2022-10-11T12:02:10.268Z,19.24
2022-10-11T12:03:10.175Z,19.26
2022-10-11T12:04:10.175Z,19.24
2022-10-11T12:05:10.156Z,19.24
2022-10-11T12:06:10.142Z,19.21
2022-10-11T12:07:17.862Z,19.21
2022-10-11T12:08:11.116Z,19.22
2022-10-11T12:09:10.117Z,19.22
2022-10-11T12:10:10.104Z,19.22
2022-10-11T12:11:10.076Z,19.27
2022-10-11T12:12:10.100Z,19.29
2022-10-11T12:13:10.046Z,19.30
2022-10-11T12:14:10.065Z,19.31
2022-10-11T12:15:10.033Z,19.31
2022-10-11T12:16:10.030Z,19.31
2022-10-11T12:17:10.018Z,19.30
2022-10-11T12:18:09.996Z,19.30
2022-10-11T12:19:09.987Z,19.30
2022-10-11T12:20:10.046Z,19.30
2022-10-11T12:21:09.965Z,19.31
2022-10-11T12:22:09.956Z,19.36
2022-10-11T12:23:09.927Z,19.37
2022-10-11T12:24:09.915Z,19.39
2022-10-11T12:25:11.214Z,19.37
2022-10-11T12:26:09.876Z,19.36
2022-10-11T12:27:09.893Z,19.34
2022-10-11T12:28:09.883Z,19.33
2022-10-11T12:29:09.835Z,19.31
2022-10-11T12:30:09.859Z,19.29
2022-10-11T12:31:09.816Z,19.26
2022-10-11T12:32:09.797Z,19.22
2022-10-11T12:33:09.799Z,19.18
2022-10-11T12:34:09.797Z,19.15
2022-10-11T12:35:09.757Z,19.12
2022-10-11T12:36:10.008Z,19.09
2022-10-11T12:37:09.750Z,19.07
2022-10-11T12:38:09.707Z,19.04
2022-10-11T12:39:09.774Z,19.04
2022-10-11T12:40:09.696Z,19.07
2022-10-11T12:41:09.675Z,19.07
2022-10-11T12:42:09.685Z,19.02
2022-10-11T12:43:09.647Z,18.99
2022-10-11T12:44:09.625Z,18.93
2022-10-11T12:45:09.625Z,18.90
2022-10-11T12:46:09.627Z,18.88
2022-10-11T12:47:09.618Z,18.90
2022-10-11T12:48:09.595Z,18.89
2022-10-11T12:49:09.567Z,18.92
2022-10-11T12:50:09.570Z,18.98
2022-10-11T12:51:09.540Z,19.00
2022-10-11T12:52:09.527Z,19.00
2022-10-11T12:53:09.528Z,19.07
2022-10-11T12:54:26.086Z,19.08
2022-10-11T12:55:10.507Z,19.07
2022-10-11T12:56:09.762Z,19.02
2022-10-11T12:57:12.010Z,18.99
2022-10-11T12:58:09.458Z,18.95
2022-10-11T12:59:09.428Z,18.95
2022-10-11T13:00:09.453Z,18.93
2022-10-11T13:01:09.443Z,18.92
2022-10-11T13:02:09.457Z,18.88
2022-10-11T13:03:09.398Z,18.81
2022-10-11T13:04:09.461Z,18.75
2022-10-11T13:05:09.357Z,18.77